sensor_id;sensor_type;location;lat;lon;timestamp;P1;durP1;ratioP1;P2;durP2;ratioP2
17566;SDS011;8901;52.088;5.084;2023-04-07T00:03:53;9.00;;;5.20;;
17566;SDS011;8901;52.088;5.084;2023-04-07T00:06:33;11.00;;;5.37;;
17566;SDS011;8901;52.088;5.084;2023-04-07T00:11:58;10.63;;;5.00;;
17566;SDS011;8901;52.088;5.084;2023-04-07T00:14:34;5.80;;;5.20;;
17566;SDS011;8901;52.088;5.084;2023-04-07T00:17:17;8.00;;;5.10;;
17566;SDS011;8901;52.088;5.084;2023-04-07T00:22:52;9.93;;;6.00;;
17566;SDS011;8901;52.088;5.084;2023-04-07T00:25:27;9.63;;;5.50;;
17566;SDS011;8901;52.088;5.084;2023-04-07T00:30:59;7.60;;;4.97;;
17566;SDS011;8901;52.088;5.084;2023-04-07T00:33:29;8.50;;;5.47;;
17566;SDS011;8901;52.088;5.084;2023-04-07T00:36:10;7.87;;;5.70;;
17566;SDS011;8901;52.088;5.084;2023-04-07T00:38:50;7.20;;;5.43;;
17566;SDS011;8901;52.088;5.084;2023-04-07T00:41:26;9.47;;;5.43;;
17566;SDS011;8901;52.088;5.084;2023-04-07T00:43:53;12.57;;;6.37;;
17566;SDS011;8901;52.088;5.084;2023-04-07T00:46:21;11.47;;;6.10;;
17566;SDS011;8901;52.088;5.084;2023-04-07T00:51:52;8.93;;;5.93;;
17566;SDS011;8901;52.088;5.084;2023-04-07T00:54:19;10.33;;;6.10;;
17566;SDS011;8901;52.088;5.084;2023-04-07T00:56:47;12.10;;;7.03;;
17566;SDS011;8901;52.088;5.084;2023-04-07T00:59:14;14.77;;;6.80;;
17566;SDS011;8901;52.088;5.084;2023-04-07T01:01:46;13.37;;;6.43;;
17566;SDS011;8901;52.088;5.084;2023-04-07T01:04:17;10.43;;;6.30;;
17566;SDS011;8901;52.088;5.084;2023-04-07T01:06:46;9.70;;;6.23;;
17566;SDS011;8901;52.088;5.084;2023-04-07T01:09:17;14.00;;;6.90;;
17566;SDS011;8901;52.088;5.084;2023-04-07T01:11:47;13.03;;;6.73;;
17566;SDS011;8901;52.088;5.084;2023-04-07T01:14:15;12.27;;;6.33;;
17566;SDS011;8901;52.088;5.084;2023-04-07T01:16:45;10.83;;;6.17;;
17566;SDS011;8901;52.088;5.084;2023-04-07T01:19:15;10.13;;;6.30;;
17566;SDS011;8901;52.088;5.084;2023-04-07T01:21:43;10.57;;;6.80;;
17566;SDS011;8901;52.088;5.084;2023-04-07T01:24:26;12.17;;;6.60;;
17566;SDS011;8901;52.088;5.084;2023-04-07T01:26:58;11.53;;;6.00;;
17566;SDS011;8901;52.088;5.084;2023-04-07T01:29:32;10.77;;;5.83;;
17566;SDS011;8901;52.088;5.084;2023-04-07T01:32:08;12.63;;;6.43;;
17566;SDS011;8901;52.088;5.084;2023-04-07T01:34:37;12.87;;;6.50;;
17566;SDS011;8901;52.088;5.084;2023-04-07T01:37:05;9.93;;;6.33;;
17566;SDS011;8901;52.088;5.084;2023-04-07T01:39:33;11.73;;;5.53;;
17566;SDS011;8901;52.088;5.084;2023-04-07T01:42:01;9.60;;;5.80;;
17566;SDS011;8901;52.088;5.084;2023-04-07T01:44:31;10.77;;;5.90;;
17566;SDS011;8901;52.088;5.084;2023-04-07T01:46:59;12.20;;;6.33;;
17566;SDS011;8901;52.088;5.084;2023-04-07T01:49:27;12.53;;;6.53;;
17566;SDS011;8901;52.088;5.084;2023-04-07T01:51:54;17.63;;;5.73;;
17566;SDS011;8901;52.088;5.084;2023-04-07T01:54:23;10.37;;;5.30;;
17566;SDS011;8901;52.088;5.084;2023-04-07T01:56:51;13.83;;;5.80;;
17566;SDS011;8901;52.088;5.084;2023-04-07T01:59:18;10.17;;;5.00;;
17566;SDS011;8901;52.088;5.084;2023-04-07T02:01:47;11.47;;;4.93;;
17566;SDS011;8901;52.088;5.084;2023-04-07T02:04:15;10.13;;;5.47;;
17566;SDS011;8901;52.088;5.084;2023-04-07T02:06:48;12.33;;;5.20;;
17566;SDS011;8901;52.088;5.084;2023-04-07T02:09:16;11.20;;;4.60;;
17566;SDS011;8901;52.088;5.084;2023-04-07T02:11:46;12.00;;;5.53;;
17566;SDS011;8901;52.088;5.084;2023-04-07T02:14:15;10.63;;;5.17;;
17566;SDS011;8901;52.088;5.084;2023-04-07T02:16:44;13.53;;;5.10;;
17566;SDS011;8901;52.088;5.084;2023-04-07T02:19:13;9.77;;;4.93;;
17566;SDS011;8901;52.088;5.084;2023-04-07T02:21:40;10.63;;;5.30;;
17566;SDS011;8901;52.088;5.084;2023-04-07T02:24:09;11.20;;;5.47;;
17566;SDS011;8901;52.088;5.084;2023-04-07T02:26:37;10.47;;;5.20;;
17566;SDS011;8901;52.088;5.084;2023-04-07T02:29:05;10.53;;;5.67;;
17566;SDS011;8901;52.088;5.084;2023-04-07T02:31:32;9.97;;;5.13;;
17566;SDS011;8901;52.088;5.084;2023-04-07T02:33:59;11.33;;;5.53;;
17566;SDS011;8901;52.088;5.084;2023-04-07T02:36:28;9.03;;;4.73;;
17566;SDS011;8901;52.088;5.084;2023-04-07T02:38:55;18.70;;;5.63;;
17566;SDS011;8901;52.088;5.084;2023-04-07T02:41:22;14.40;;;5.07;;
17566;SDS011;8901;52.088;5.084;2023-04-07T02:43:50;9.10;;;4.27;;
17566;SDS011;8901;52.088;5.084;2023-04-07T02:46:17;8.30;;;4.10;;
17566;SDS011;8901;52.088;5.084;2023-04-07T02:48:44;9.23;;;4.80;;
17566;SDS011;8901;52.088;5.084;2023-04-07T02:51:11;13.87;;;5.07;;
17566;SDS011;8901;52.088;5.084;2023-04-07T02:53:40;10.57;;;4.90;;
17566;SDS011;8901;52.088;5.084;2023-04-07T02:56:07;11.30;;;4.57;;
17566;SDS011;8901;52.088;5.084;2023-04-07T02:58:34;14.50;;;5.47;;
17566;SDS011;8901;52.088;5.084;2023-04-07T03:01:01;16.33;;;5.20;;
17566;SDS011;8901;52.088;5.084;2023-04-07T03:03:29;11.13;;;5.53;;
17566;SDS011;8901;52.088;5.084;2023-04-07T03:05:56;10.87;;;4.50;;
17566;SDS011;8901;52.088;5.084;2023-04-07T03:08:23;13.83;;;4.73;;
17566;SDS011;8901;52.088;5.084;2023-04-07T03:10:53;13.50;;;5.33;;
17566;SDS011;8901;52.088;5.084;2023-04-07T03:13:21;13.67;;;5.40;;
17566;SDS011;8901;52.088;5.084;2023-04-07T03:15:48;13.70;;;5.20;;
17566;SDS011;8901;52.088;5.084;2023-04-07T03:18:15;12.50;;;5.13;;
17566;SDS011;8901;52.088;5.084;2023-04-07T03:20:42;14.87;;;5.20;;
17566;SDS011;8901;52.088;5.084;2023-04-07T03:23:11;13.87;;;5.10;;
17566;SDS011;8901;52.088;5.084;2023-04-07T03:25:38;12.60;;;5.13;;
17566;SDS011;8901;52.088;5.084;2023-04-07T03:28:07;10.23;;;4.33;;
17566;SDS011;8901;52.088;5.084;2023-04-07T03:30:34;9.60;;;4.50;;
17566;SDS011;8901;52.088;5.084;2023-04-07T03:33:02;15.47;;;5.47;;
17566;SDS011;8901;52.088;5.084;2023-04-07T03:35:29;13.47;;;5.40;;
17566;SDS011;8901;52.088;5.084;2023-04-07T03:37:57;11.97;;;4.73;;
17566;SDS011;8901;52.088;5.084;2023-04-07T03:40:24;12.30;;;5.23;;
17566;SDS011;8901;52.088;5.084;2023-04-07T03:42:51;14.53;;;5.30;;
17566;SDS011;8901;52.088;5.084;2023-04-07T03:45:19;14.87;;;5.70;;
17566;SDS011;8901;52.088;5.084;2023-04-07T03:47:47;11.73;;;5.50;;
17566;SDS011;8901;52.088;5.084;2023-04-07T03:50:14;14.53;;;5.87;;
17566;SDS011;8901;52.088;5.084;2023-04-07T03:52:41;11.67;;;5.47;;
17566;SDS011;8901;52.088;5.084;2023-04-07T03:55:08;13.43;;;5.90;;
17566;SDS011;8901;52.088;5.084;2023-04-07T03:57:35;11.77;;;5.93;;
17566;SDS011;8901;52.088;5.084;2023-04-07T04:00:03;14.23;;;5.90;;
17566;SDS011;8901;52.088;5.084;2023-04-07T04:02:32;11.53;;;5.87;;
17566;SDS011;8901;52.088;5.084;2023-04-07T04:04:59;11.30;;;5.63;;
17566;SDS011;8901;52.088;5.084;2023-04-07T04:07:26;9.93;;;5.57;;
17566;SDS011;8901;52.088;5.084;2023-04-07T04:09:54;9.70;;;5.37;;
17566;SDS011;8901;52.088;5.084;2023-04-07T04:12:21;15.60;;;5.93;;
17566;SDS011;8901;52.088;5.084;2023-04-07T04:14:48;11.93;;;6.47;;
17566;SDS011;8901;52.088;5.084;2023-04-07T04:17:15;10.23;;;5.97;;
17566;SDS011;8901;52.088;5.084;2023-04-07T04:19:43;8.70;;;6.10;;
17566;SDS011;8901;52.088;5.084;2023-04-07T04:22:11;9.43;;;5.73;;
17566;SDS011;8901;52.088;5.084;2023-04-07T04:24:38;9.90;;;6.87;;
17566;SDS011;8901;52.088;5.084;2023-04-07T04:27:05;9.93;;;6.70;;
17566;SDS011;8901;52.088;5.084;2023-04-07T04:29:33;11.43;;;6.83;;
17566;SDS011;8901;52.088;5.084;2023-04-07T04:32:00;13.97;;;7.37;;
17566;SDS011;8901;52.088;5.084;2023-04-07T04:34:27;8.70;;;7.10;;
17566;SDS011;8901;52.088;5.084;2023-04-07T04:36:55;11.37;;;7.60;;
17566;SDS011;8901;52.088;5.084;2023-04-07T04:39:23;10.70;;;6.10;;
17566;SDS011;8901;52.088;5.084;2023-04-07T04:41:50;11.40;;;6.17;;
17566;SDS011;8901;52.088;5.084;2023-04-07T04:44:17;11.80;;;6.70;;
17566;SDS011;8901;52.088;5.084;2023-04-07T04:46:44;11.13;;;5.97;;
17566;SDS011;8901;52.088;5.084;2023-04-07T04:49:11;9.93;;;5.93;;
17566;SDS011;8901;52.088;5.084;2023-04-07T04:51:39;9.20;;;5.80;;
17566;SDS011;8901;52.088;5.084;2023-04-07T04:54:08;8.50;;;5.77;;
17566;SDS011;8901;52.088;5.084;2023-04-07T04:56:35;10.43;;;5.70;;
17566;SDS011;8901;52.088;5.084;2023-04-07T04:59:03;10.20;;;5.60;;
17566;SDS011;8901;52.088;5.084;2023-04-07T05:01:30;8.20;;;6.10;;
17566;SDS011;8901;52.088;5.084;2023-04-07T05:03:57;9.73;;;5.70;;
17566;SDS011;8901;52.088;5.084;2023-04-07T05:06:24;11.57;;;5.97;;
17566;SDS011;8901;52.088;5.084;2023-04-07T05:08:52;9.27;;;6.07;;
17566;SDS011;8901;52.088;5.084;2023-04-07T05:11:20;11.00;;;7.40;;
17566;SDS011;8901;52.088;5.084;2023-04-07T05:13:48;9.60;;;6.60;;
17566;SDS011;8901;52.088;5.084;2023-04-07T05:16:15;10.53;;;6.37;;
17566;SDS011;8901;52.088;5.084;2023-04-07T05:18:42;11.60;;;5.90;;
17566;SDS011;8901;52.088;5.084;2023-04-07T05:21:09;10.07;;;5.77;;
17566;SDS011;8901;52.088;5.084;2023-04-07T05:23:36;9.17;;;5.63;;
17566;SDS011;8901;52.088;5.084;2023-04-07T05:26:03;8.30;;;5.53;;
17566;SDS011;8901;52.088;5.084;2023-04-07T05:28:32;9.63;;;5.47;;
17566;SDS011;8901;52.088;5.084;2023-04-07T05:33:48;9.13;;;4.87;;
17566;SDS011;8901;52.088;5.084;2023-04-07T05:36:15;14.90;;;5.43;;
17566;SDS011;8901;52.088;5.084;2023-04-07T05:38:42;10.90;;;4.47;;
17566;SDS011;8901;52.088;5.084;2023-04-07T05:41:09;6.90;;;4.80;;
17566;SDS011;8901;52.088;5.084;2023-04-07T05:43:38;8.37;;;4.73;;
17566;SDS011;8901;52.088;5.084;2023-04-07T05:48:38;12.43;;;5.37;;
17566;SDS011;8901;52.088;5.084;2023-04-07T05:56:58;9.67;;;4.50;;
17566;SDS011;8901;52.088;5.084;2023-04-07T05:59:27;8.17;;;4.43;;
17566;SDS011;8901;52.088;5.084;2023-04-07T06:01:54;9.27;;;4.47;;
17566;SDS011;8901;52.088;5.084;2023-04-07T06:04:21;8.20;;;3.77;;
17566;SDS011;8901;52.088;5.084;2023-04-07T06:06:49;9.80;;;4.50;;
17566;SDS011;8901;52.088;5.084;2023-04-07T06:09:33;10.53;;;4.23;;
17566;SDS011;8901;52.088;5.084;2023-04-07T06:12:00;9.67;;;4.17;;
17566;SDS011;8901;52.088;5.084;2023-04-07T06:14:30;8.83;;;4.10;;
17566;SDS011;8901;52.088;5.084;2023-04-07T06:16:57;6.63;;;3.47;;
17566;SDS011;8901;52.088;5.084;2023-04-07T06:19:25;5.33;;;3.43;;
17566;SDS011;8901;52.088;5.084;2023-04-07T06:21:52;7.47;;;3.57;;
17566;SDS011;8901;52.088;5.084;2023-04-07T06:24:19;7.33;;;3.70;;
17566;SDS011;8901;52.088;5.084;2023-04-07T06:26:46;10.27;;;4.30;;
17566;SDS011;8901;52.088;5.084;2023-04-07T06:29:14;11.50;;;4.10;;
17566;SDS011;8901;52.088;5.084;2023-04-07T06:31:42;9.80;;;4.43;;
17566;SDS011;8901;52.088;5.084;2023-04-07T06:34:10;5.63;;;3.43;;
17566;SDS011;8901;52.088;5.084;2023-04-07T06:36:37;8.07;;;4.90;;
17566;SDS011;8901;52.088;5.084;2023-04-07T06:39:04;9.53;;;4.60;;
17566;SDS011;8901;52.088;5.084;2023-04-07T06:41:31;11.13;;;4.83;;
17566;SDS011;8901;52.088;5.084;2023-04-07T06:43:58;9.27;;;4.63;;
17566;SDS011;8901;52.088;5.084;2023-04-07T06:46:25;9.87;;;4.40;;
17566;SDS011;8901;52.088;5.084;2023-04-07T06:48:54;8.83;;;4.10;;
17566;SDS011;8901;52.088;5.084;2023-04-07T06:51:21;8.70;;;4.70;;
17566;SDS011;8901;52.088;5.084;2023-04-07T06:53:48;6.97;;;4.30;;
17566;SDS011;8901;52.088;5.084;2023-04-07T06:56:15;9.00;;;4.00;;
17566;SDS011;8901;52.088;5.084;2023-04-07T06:58:43;9.10;;;4.27;;
17566;SDS011;8901;52.088;5.084;2023-04-07T07:01:10;12.80;;;4.20;;
17566;SDS011;8901;52.088;5.084;2023-04-07T07:03:37;14.17;;;5.03;;
17566;SDS011;8901;52.088;5.084;2023-04-07T07:06:05;9.53;;;5.10;;
17566;SDS011;8901;52.088;5.084;2023-04-07T07:08:33;8.40;;;4.67;;
17566;SDS011;8901;52.088;5.084;2023-04-07T07:11:00;8.57;;;4.57;;
17566;SDS011;8901;52.088;5.084;2023-04-07T07:13:27;12.33;;;4.90;;
17566;SDS011;8901;52.088;5.084;2023-04-07T07:15:54;7.50;;;4.63;;
17566;SDS011;8901;52.088;5.084;2023-04-07T07:18:21;9.67;;;4.63;;
17566;SDS011;8901;52.088;5.084;2023-04-07T07:20:49;9.70;;;4.70;;
17566;SDS011;8901;52.088;5.084;2023-04-07T07:23:17;10.00;;;4.23;;
17566;SDS011;8901;52.088;5.084;2023-04-07T07:25:44;11.77;;;4.60;;
17566;SDS011;8901;52.088;5.084;2023-04-07T07:28:12;7.03;;;4.33;;
17566;SDS011;8901;52.088;5.084;2023-04-07T07:30:39;8.77;;;3.90;;
17566;SDS011;8901;52.088;5.084;2023-04-07T07:33:06;9.57;;;4.00;;
17566;SDS011;8901;52.088;5.084;2023-04-07T07:35:33;11.30;;;3.97;;
17566;SDS011;8901;52.088;5.084;2023-04-07T07:38:01;13.83;;;4.80;;
17566;SDS011;8901;52.088;5.084;2023-04-07T07:40:30;9.37;;;3.83;;
17566;SDS011;8901;52.088;5.084;2023-04-07T07:42:58;10.60;;;5.10;;
17566;SDS011;8901;52.088;5.084;2023-04-07T07:45:26;10.80;;;4.37;;
17566;SDS011;8901;52.088;5.084;2023-04-07T07:47:53;13.30;;;4.30;;
17566;SDS011;8901;52.088;5.084;2023-04-07T07:50:20;11.80;;;4.07;;
17566;SDS011;8901;52.088;5.084;2023-04-07T07:52:47;9.40;;;4.23;;
17566;SDS011;8901;52.088;5.084;2023-04-07T07:55:14;9.30;;;4.60;;
17566;SDS011;8901;52.088;5.084;2023-04-07T07:57:43;12.63;;;4.27;;
17566;SDS011;8901;52.088;5.084;2023-04-07T08:00:10;10.63;;;4.47;;
17566;SDS011;8901;52.088;5.084;2023-04-07T08:02:38;14.43;;;4.37;;
17566;SDS011;8901;52.088;5.084;2023-04-07T08:05:05;11.57;;;3.80;;
17566;SDS011;8901;52.088;5.084;2023-04-07T08:07:32;11.17;;;4.17;;
17566;SDS011;8901;52.088;5.084;2023-04-07T08:09:59;8.70;;;4.23;;
17566;SDS011;8901;52.088;5.084;2023-04-07T08:12:26;8.23;;;3.90;;
17566;SDS011;8901;52.088;5.084;2023-04-07T08:14:55;9.17;;;4.00;;
17566;SDS011;8901;52.088;5.084;2023-04-07T08:17:22;7.10;;;4.00;;
17566;SDS011;8901;52.088;5.084;2023-04-07T08:19:50;10.60;;;4.07;;
17566;SDS011;8901;52.088;5.084;2023-04-07T08:22:17;8.43;;;3.90;;
17566;SDS011;8901;52.088;5.084;2023-04-07T08:24:45;8.77;;;4.53;;
17566;SDS011;8901;52.088;5.084;2023-04-07T08:27:12;9.50;;;4.03;;
17566;SDS011;8901;52.088;5.084;2023-04-07T08:29:40;14.87;;;4.60;;
17566;SDS011;8901;52.088;5.084;2023-04-07T08:32:14;9.37;;;4.07;;
17566;SDS011;8901;52.088;5.084;2023-04-07T08:34:41;6.67;;;3.63;;
17566;SDS011;8901;52.088;5.084;2023-04-07T08:37:08;11.80;;;4.23;;
17566;SDS011;8901;52.088;5.084;2023-04-07T08:39:36;10.80;;;4.30;;
17566;SDS011;8901;52.088;5.084;2023-04-07T08:45:07;12.07;;;3.90;;
17566;SDS011;8901;52.088;5.084;2023-04-07T08:47:36;9.07;;;4.20;;
17566;SDS011;8901;52.088;5.084;2023-04-07T08:50:04;8.63;;;4.13;;
17566;SDS011;8901;52.088;5.084;2023-04-07T08:52:32;9.23;;;4.00;;
17566;SDS011;8901;52.088;5.084;2023-04-07T08:55:00;7.63;;;4.33;;
17566;SDS011;8901;52.088;5.084;2023-04-07T08:57:28;8.73;;;4.60;;
17566;SDS011;8901;52.088;5.084;2023-04-07T08:59:57;10.80;;;4.53;;
17566;SDS011;8901;52.088;5.084;2023-04-07T09:02:26;10.60;;;4.43;;
17566;SDS011;8901;52.088;5.084;2023-04-07T09:04:55;14.40;;;5.17;;
17566;SDS011;8901;52.088;5.084;2023-04-07T09:07:22;8.27;;;4.10;;
17566;SDS011;8901;52.088;5.084;2023-04-07T09:09:50;13.30;;;4.63;;
17566;SDS011;8901;52.088;5.084;2023-04-07T09:12:17;9.97;;;4.60;;
17566;SDS011;8901;52.088;5.084;2023-04-07T09:14:45;10.63;;;3.85;;
17566;SDS011;8901;52.088;5.084;2023-04-07T09:17:13;8.73;;;4.30;;
17566;SDS011;8901;52.088;5.084;2023-04-07T09:19:40;15.63;;;4.70;;
17566;SDS011;8901;52.088;5.084;2023-04-07T09:22:09;11.67;;;4.40;;
17566;SDS011;8901;52.088;5.084;2023-04-07T09:24:38;11.13;;;4.33;;
17566;SDS011;8901;52.088;5.084;2023-04-07T09:27:09;12.73;;;4.23;;
17566;SDS011;8901;52.088;5.084;2023-04-07T09:29:36;8.93;;;3.40;;
17566;SDS011;8901;52.088;5.084;2023-04-07T09:32:04;9.13;;;4.37;;
17566;SDS011;8901;52.088;5.084;2023-04-07T09:34:31;7.83;;;3.80;;
17566;SDS011;8901;52.088;5.084;2023-04-07T09:36:59;10.30;;;4.20;;
17566;SDS011;8901;52.088;5.084;2023-04-07T09:39:30;11.93;;;4.87;;
17566;SDS011;8901;52.088;5.084;2023-04-07T09:41:57;10.47;;;4.70;;
17566;SDS011;8901;52.088;5.084;2023-04-07T09:44:24;8.23;;;3.97;;
17566;SDS011;8901;52.088;5.084;2023-04-07T09:46:52;11.37;;;4.70;;
17566;SDS011;8901;52.088;5.084;2023-04-07T09:49:19;14.07;;;4.10;;
17566;SDS011;8901;52.088;5.084;2023-04-07T09:51:53;11.00;;;4.73;;
17566;SDS011;8901;52.088;5.084;2023-04-07T09:54:32;10.63;;;4.13;;
17566;SDS011;8901;52.088;5.084;2023-04-07T09:57:00;9.43;;;3.40;;
17566;SDS011;8901;52.088;5.084;2023-04-07T09:59:27;10.90;;;3.83;;
17566;SDS011;8901;52.088;5.084;2023-04-07T10:01:55;11.17;;;4.13;;
17566;SDS011;8901;52.088;5.084;2023-04-07T10:04:22;8.20;;;4.17;;
17566;SDS011;8901;52.088;5.084;2023-04-07T10:06:50;9.60;;;4.20;;
17566;SDS011;8901;52.088;5.084;2023-04-07T10:09:18;9.37;;;4.30;;
17566;SDS011;8901;52.088;5.084;2023-04-07T10:11:47;8.57;;;4.47;;
17566;SDS011;8901;52.088;5.084;2023-04-07T10:14:14;13.03;;;5.00;;
17566;SDS011;8901;52.088;5.084;2023-04-07T10:16:43;10.60;;;5.50;;
17566;SDS011;8901;52.088;5.084;2023-04-07T10:19:13;16.93;;;5.83;;
17566;SDS011;8901;52.088;5.084;2023-04-07T10:21:41;13.43;;;5.83;;
17566;SDS011;8901;52.088;5.084;2023-04-07T10:24:13;9.67;;;5.10;;
17566;SDS011;8901;52.088;5.084;2023-04-07T10:26:44;8.23;;;5.17;;
17566;SDS011;8901;52.088;5.084;2023-04-07T10:29:15;12.47;;;5.17;;
17566;SDS011;8901;52.088;5.084;2023-04-07T10:31:43;7.53;;;4.43;;
17566;SDS011;8901;52.088;5.084;2023-04-07T10:34:11;10.77;;;4.60;;
17566;SDS011;8901;52.088;5.084;2023-04-07T10:39:20;15.70;;;4.83;;
17566;SDS011;8901;52.088;5.084;2023-04-07T10:41:48;15.93;;;5.40;;
17566;SDS011;8901;52.088;5.084;2023-04-07T10:47:05;15.47;;;5.17;;
17566;SDS011;8901;52.088;5.084;2023-04-07T10:49:32;11.43;;;4.40;;
17566;SDS011;8901;52.088;5.084;2023-04-07T10:54:46;11.67;;;4.63;;
17566;SDS011;8901;52.088;5.084;2023-04-07T10:57:13;9.00;;;4.43;;
17566;SDS011;8901;52.088;5.084;2023-04-07T11:02:36;11.10;;;4.03;;
17566;SDS011;8901;52.088;5.084;2023-04-07T11:05:03;9.03;;;4.07;;
17566;SDS011;8901;52.088;5.084;2023-04-07T11:07:50;11.27;;;4.37;;
17566;SDS011;8901;52.088;5.084;2023-04-07T11:10:19;17.07;;;5.40;;
17566;SDS011;8901;52.088;5.084;2023-04-07T11:13:06;15.43;;;4.80;;
17566;SDS011;8901;52.088;5.084;2023-04-07T11:15:34;13.23;;;4.83;;
17566;SDS011;8901;52.088;5.084;2023-04-07T11:20:49;11.83;;;4.30;;
17566;SDS011;8901;52.088;5.084;2023-04-07T11:23:17;12.90;;;5.67;;
17566;SDS011;8901;52.088;5.084;2023-04-07T11:25:45;16.23;;;5.27;;
17566;SDS011;8901;52.088;5.084;2023-04-07T11:28:13;11.97;;;4.03;;
17566;SDS011;8901;52.088;5.084;2023-04-07T11:30:44;11.60;;;4.63;;
17566;SDS011;8901;52.088;5.084;2023-04-07T11:33:16;12.37;;;4.30;;
17566;SDS011;8901;52.088;5.084;2023-04-07T11:35:52;10.70;;;4.33;;
17566;SDS011;8901;52.088;5.084;2023-04-07T11:38:21;12.77;;;4.50;;
17566;SDS011;8901;52.088;5.084;2023-04-07T11:40:53;9.63;;;4.60;;
17566;SDS011;8901;52.088;5.084;2023-04-07T11:43:21;8.20;;;4.73;;
17566;SDS011;8901;52.088;5.084;2023-04-07T11:46:05;10.97;;;4.10;;
17566;SDS011;8901;52.088;5.084;2023-04-07T11:48:32;12.83;;;5.00;;
17566;SDS011;8901;52.088;5.084;2023-04-07T11:51:01;13.30;;;4.77;;
17566;SDS011;8901;52.088;5.084;2023-04-07T11:53:30;11.90;;;4.20;;
17566;SDS011;8901;52.088;5.084;2023-04-07T11:55:58;15.13;;;5.20;;
17566;SDS011;8901;52.088;5.084;2023-04-07T11:58:26;11.70;;;4.43;;
17566;SDS011;8901;52.088;5.084;2023-04-07T12:00:53;10.30;;;4.93;;
17566;SDS011;8901;52.088;5.084;2023-04-07T12:03:21;10.10;;;4.20;;
17566;SDS011;8901;52.088;5.084;2023-04-07T12:05:48;11.20;;;4.30;;
17566;SDS011;8901;52.088;5.084;2023-04-07T12:08:17;10.83;;;5.03;;
17566;SDS011;8901;52.088;5.084;2023-04-07T12:10:45;8.57;;;4.40;;
17566;SDS011;8901;52.088;5.084;2023-04-07T12:13:12;15.73;;;4.90;;
17566;SDS011;8901;52.088;5.084;2023-04-07T12:15:42;12.03;;;4.57;;
17566;SDS011;8901;52.088;5.084;2023-04-07T12:18:13;10.77;;;4.60;;
17566;SDS011;8901;52.088;5.084;2023-04-07T12:20:44;18.33;;;4.93;;
17566;SDS011;8901;52.088;5.084;2023-04-07T12:23:11;16.97;;;5.10;;
17566;SDS011;8901;52.088;5.084;2023-04-07T12:25:39;13.70;;;5.20;;
17566;SDS011;8901;52.088;5.084;2023-04-07T12:28:07;14.83;;;4.83;;
17566;SDS011;8901;52.088;5.084;2023-04-07T12:30:36;10.87;;;4.60;;
17566;SDS011;8901;52.088;5.084;2023-04-07T12:33:04;15.80;;;5.77;;
17566;SDS011;8901;52.088;5.084;2023-04-07T12:35:32;14.17;;;5.37;;
17566;SDS011;8901;52.088;5.084;2023-04-07T12:37:59;13.90;;;5.10;;
17566;SDS011;8901;52.088;5.084;2023-04-07T12:40:27;15.73;;;5.10;;
17566;SDS011;8901;52.088;5.084;2023-04-07T12:42:56;15.63;;;6.33;;
17566;SDS011;8901;52.088;5.084;2023-04-07T12:45:23;11.97;;;4.63;;
17566;SDS011;8901;52.088;5.084;2023-04-07T12:47:50;12.03;;;5.17;;
17566;SDS011;8901;52.088;5.084;2023-04-07T12:50:17;14.47;;;5.30;;
17566;SDS011;8901;52.088;5.084;2023-04-07T12:52:45;11.70;;;4.57;;
17566;SDS011;8901;52.088;5.084;2023-04-07T12:55:13;13.17;;;5.13;;
17566;SDS011;8901;52.088;5.084;2023-04-07T12:57:40;13.60;;;5.10;;
17566;SDS011;8901;52.088;5.084;2023-04-07T13:00:09;11.77;;;5.10;;
17566;SDS011;8901;52.088;5.084;2023-04-07T13:02:37;13.10;;;4.73;;
17566;SDS011;8901;52.088;5.084;2023-04-07T13:05:04;14.57;;;5.80;;
17566;SDS011;8901;52.088;5.084;2023-04-07T13:07:31;12.83;;;4.40;;
17566;SDS011;8901;52.088;5.084;2023-04-07T13:09:59;11.47;;;5.00;;
17566;SDS011;8901;52.088;5.084;2023-04-07T13:12:26;13.07;;;4.80;;
17566;SDS011;8901;52.088;5.084;2023-04-07T13:14:53;12.13;;;5.20;;
17566;SDS011;8901;52.088;5.084;2023-04-07T13:17:22;16.87;;;6.10;;
17566;SDS011;8901;52.088;5.084;2023-04-07T13:19:49;15.33;;;5.73;;
17566;SDS011;8901;52.088;5.084;2023-04-07T13:22:16;15.60;;;5.63;;
17566;SDS011;8901;52.088;5.084;2023-04-07T13:24:43;21.90;;;5.90;;
17566;SDS011;8901;52.088;5.084;2023-04-07T13:27:11;13.77;;;5.43;;
17566;SDS011;8901;52.088;5.084;2023-04-07T13:29:38;13.07;;;5.53;;
17566;SDS011;8901;52.088;5.084;2023-04-07T13:32:06;15.27;;;5.30;;
17566;SDS011;8901;52.088;5.084;2023-04-07T13:34:35;15.10;;;5.93;;
17566;SDS011;8901;52.088;5.084;2023-04-07T13:37:05;11.70;;;5.37;;
17566;SDS011;8901;52.088;5.084;2023-04-07T13:39:32;17.00;;;5.50;;
17566;SDS011;8901;52.088;5.084;2023-04-07T13:42:00;13.23;;;6.00;;
17566;SDS011;8901;52.088;5.084;2023-04-07T13:44:28;15.53;;;5.63;;
17566;SDS011;8901;52.088;5.084;2023-04-07T13:46:56;10.17;;;5.67;;
17566;SDS011;8901;52.088;5.084;2023-04-07T13:49:25;16.40;;;5.87;;
17566;SDS011;8901;52.088;5.084;2023-04-07T13:51:54;10.63;;;5.10;;
17566;SDS011;8901;52.088;5.084;2023-04-07T13:54:22;16.53;;;5.67;;
17566;SDS011;8901;52.088;5.084;2023-04-07T13:56:50;9.43;;;4.83;;
17566;SDS011;8901;52.088;5.084;2023-04-07T13:59:18;12.23;;;5.77;;
17566;SDS011;8901;52.088;5.084;2023-04-07T14:01:45;17.07;;;6.13;;
17566;SDS011;8901;52.088;5.084;2023-04-07T14:04:12;12.60;;;5.57;;
17566;SDS011;8901;52.088;5.084;2023-04-07T14:06:39;12.23;;;5.57;;
17566;SDS011;8901;52.088;5.084;2023-04-07T14:09:08;13.50;;;5.83;;
17566;SDS011;8901;52.088;5.084;2023-04-07T14:11:35;15.63;;;5.93;;
17566;SDS011;8901;52.088;5.084;2023-04-07T14:14:02;12.70;;;5.13;;
17566;SDS011;8901;52.088;5.084;2023-04-07T14:16:30;12.17;;;6.07;;
17566;SDS011;8901;52.088;5.084;2023-04-07T14:18:57;10.10;;;4.50;;
17566;SDS011;8901;52.088;5.084;2023-04-07T14:21:24;11.90;;;5.17;;
17566;SDS011;8901;52.088;5.084;2023-04-07T14:23:52;13.23;;;6.40;;
17566;SDS011;8901;52.088;5.084;2023-04-07T14:26:21;12.73;;;5.87;;
17566;SDS011;8901;52.088;5.084;2023-04-07T14:28:48;11.47;;;5.10;;
17566;SDS011;8901;52.088;5.084;2023-04-07T14:31:15;12.80;;;5.27;;
17566;SDS011;8901;52.088;5.084;2023-04-07T14:33:42;11.83;;;5.50;;
17566;SDS011;8901;52.088;5.084;2023-04-07T14:36:10;12.93;;;5.10;;
17566;SDS011;8901;52.088;5.084;2023-04-07T14:38:37;9.10;;;4.23;;
17566;SDS011;8901;52.088;5.084;2023-04-07T14:41:04;9.90;;;4.73;;
17566;SDS011;8901;52.088;5.084;2023-04-07T14:43:33;11.27;;;5.67;;
17566;SDS011;8901;52.088;5.084;2023-04-07T14:46:00;11.97;;;5.50;;
17566;SDS011;8901;52.088;5.084;2023-04-07T14:48:28;10.40;;;5.77;;
17566;SDS011;8901;52.088;5.084;2023-04-07T14:50:56;14.80;;;5.20;;
17566;SDS011;8901;52.088;5.084;2023-04-07T14:53:23;12.47;;;5.40;;
17566;SDS011;8901;52.088;5.084;2023-04-07T14:55:50;10.37;;;5.83;;
17566;SDS011;8901;52.088;5.084;2023-04-07T14:58:18;11.00;;;6.40;;
17566;SDS011;8901;52.088;5.084;2023-04-07T15:00:46;15.47;;;5.97;;
17566;SDS011;8901;52.088;5.084;2023-04-07T15:03:13;12.30;;;6.17;;
17566;SDS011;8901;52.088;5.084;2023-04-07T15:05:40;11.80;;;5.63;;
17566;SDS011;8901;52.088;5.084;2023-04-07T15:08:09;12.90;;;5.37;;
17566;SDS011;8901;52.088;5.084;2023-04-07T15:10:36;12.87;;;5.67;;
17566;SDS011;8901;52.088;5.084;2023-04-07T15:13:03;12.87;;;5.83;;
17566;SDS011;8901;52.088;5.084;2023-04-07T15:15:32;11.27;;;5.13;;
17566;SDS011;8901;52.088;5.084;2023-04-07T15:18:00;13.43;;;5.40;;
17566;SDS011;8901;52.088;5.084;2023-04-07T15:20:28;11.73;;;6.10;;
17566;SDS011;8901;52.088;5.084;2023-04-07T15:22:55;9.57;;;6.23;;
17566;SDS011;8901;52.088;5.084;2023-04-07T15:25:24;8.30;;;5.73;;
17566;SDS011;8901;52.088;5.084;2023-04-07T15:27:52;9.53;;;5.83;;
17566;SDS011;8901;52.088;5.084;2023-04-07T15:30:19;9.10;;;6.00;;
17566;SDS011;8901;52.088;5.084;2023-04-07T15:32:55;10.97;;;5.83;;
17566;SDS011;8901;52.088;5.084;2023-04-07T15:35:24;7.47;;;5.83;;
17566;SDS011;8901;52.088;5.084;2023-04-07T15:37:51;10.23;;;6.13;;
17566;SDS011;8901;52.088;5.084;2023-04-07T15:40:21;8.60;;;5.60;;
17566;SDS011;8901;52.088;5.084;2023-04-07T15:42:48;8.80;;;5.90;;